Time;durP1;ratioP1;P1;durP2;ratioP2;P2;SDS_P1;SDS_P2;PMS_P1;PMS_P2;Temp;Humidity;BMP_temperature;BMP_pressure;BME280_temperature;BME280_humidity;BME280_pressure;Samples;Min_cycle;Max_cycle;Signal;HPM_P1;HPM_P2
2021/06/02 00:01:55;;;;;;;2.23;1.97;;;8.90;99.90;;;;;;7651228;23;20244;-71
2021/06/02 00:05:02;;;;;;;2.23;2.00;;;8.90;99.90;;;;;;7651874;23;20233;-71
2021/06/02 00:08:10;;;;;;;2.47;1.93;;;8.90;99.90;;;;;;7649969;23;20180;-71
2021/06/02 00:11:12;;;;;;;4.10;2.10;;;8.90;99.90;;;;;;7650734;23;20589;-71
2021/06/02 00:14:18;;;;;;;2.43;1.93;;;8.90;99.90;;;;;;7676748;23;20168;-71
2021/06/02 00:17:20;;;;;;;3.53;2.07;;;8.90;99.90;;;;;;7675415;23;20177;-71
2021/06/02 00:20:22;;;;;;;5.77;2.17;;;8.90;99.90;;;;;;7675703;23;20161;-71
2021/06/02 00:23:25;;;;;;;4.13;2.23;;;8.80;99.90;;;;;;7649422;23;20627;-71
2021/06/02 00:26:33;;;;;;;3.13;2.20;;;8.80;99.90;;;;;;7649214;23;20504;-71
2021/06/02 00:29:37;;;;;;;3.80;2.17;;;8.80;99.90;;;;;;7649714;23;20663;-71
2021/06/02 00:32:40;;;;;;;2.60;2.33;;;8.70;99.90;;;;;;7675151;23;20513;-71
2021/06/02 00:35:45;;;;;;;2.60;2.23;;;8.70;99.90;;;;;;7649679;23;20494;-71
2021/06/02 00:38:47;;;;;;;3.07;2.50;;;8.70;99.90;;;;;;7648660;23;20168;-71
2021/06/02 00:41:50;;;;;;;2.60;2.13;;;8.70;99.90;;;;;;7649487;23;20182;-71
2021/06/02 00:44:54;;;;;;;3.40;2.30;;;8.70;99.90;;;;;;7675129;23;20577;-71
2021/06/02 00:47:56;;;;;;;2.50;2.10;;;8.70;99.90;;;;;;7649248;23;20184;-71
2021/06/02 00:50:58;;;;;;;2.47;1.70;;;8.70;99.90;;;;;;7675627;23;20629;-71
2021/06/02 00:54:02;;;;;;;3.47;2.30;;;8.60;99.90;;;;;;7648880;23;20175;-71
2021/06/02 00:57:10;;;;;;;3.17;2.00;;;8.60;99.90;;;;;;7675304;23;20189;-71
2021/06/02 01:00:13;;;;;;;2.67;2.40;;;8.60;99.90;;;;;;7676544;23;20645;-71
2021/06/02 01:03:21;;;;;;;3.97;1.93;;;8.60;99.90;;;;;;7677861;23;20178;-71
2021/06/02 01:06:27;;;;;;;2.93;2.10;;;8.60;99.90;;;;;;7678114;23;20556;-71
2021/06/02 01:09:33;;;;;;;2.30;2.10;;;8.60;99.90;;;;;;7650817;23;20242;-71
2021/06/02 01:12:39;;;;;;;3.73;2.00;;;8.50;99.90;;;;;;7677884;23;20187;-72
2021/06/02 01:15:43;;;;;;;2.07;1.87;;;8.50;99.90;;;;;;7627201;23;20631;-71
2021/06/02 01:18:47;;;;;;;2.70;2.00;;;8.50;99.90;;;;;;7651951;23;20621;-71
2021/06/02 01:21:59;;;;;;;3.23;2.07;;;8.50;99.90;;;;;;7679048;23;20630;-71
2021/06/02 01:25:08;;;;;;;2.97;2.37;;;8.40;99.90;;;;;;7652969;23;20479;-71
2021/06/02 01:28:11;;;;;;;2.43;2.07;;;8.40;99.90;;;;;;7678687;23;20487;-71
2021/06/02 01:31:35;;;;;;;2.43;2.23;;;8.40;99.90;;;;;;7679669;23;20196;-71
2021/06/02 01:35:05;;;;;;;2.37;2.17;;;8.40;99.90;;;;;;7652591;23;20171;-71
2021/06/02 01:38:38;;;;;;;2.13;2.00;;;8.40;99.90;;;;;;7678359;23;20186;-71
2021/06/02 01:42:02;;;;;;;2.83;2.57;;;8.40;99.90;;;;;;7679811;23;20157;-71
2021/06/02 01:45:30;;;;;;;5.63;2.40;;;8.40;99.90;;;;;;7679092;23;20162;-71
2021/06/02 01:48:35;;;;;;;3.37;2.33;;;8.30;99.90;;;;;;7678666;23;20228;-71
2021/06/02 01:52:08;;;;;;;1.93;1.83;;;8.30;99.90;;;;;;7678364;23;20517;-71
2021/06/02 01:55:44;;;;;;;3.60;2.10;;;8.20;99.90;;;;;;7628217;23;20168;-71
2021/06/02 01:59:11;;;;;;;2.50;1.97;;;8.30;99.90;;;;;;7678100;23;20479;-71
2021/06/02 02:02:35;;;;;;;3.07;2.30;;;8.20;99.90;;;;;;7653673;23;20155;-71
2021/06/02 02:06:12;;;;;;;3.47;2.50;;;8.20;99.90;;;;;;7679185;23;20159;-71
2021/06/02 02:09:17;;;;;;;2.40;2.20;;;8.20;99.90;;;;;;7678330;23;20185;-71
2021/06/02 02:12:53;;;;;;;2.27;2.07;;;8.10;99.90;;;;;;7652077;23;20210;-71
2021/06/02 02:16:34;;;;;;;3.40;2.43;;;8.10;99.90;;;;;;7678290;23;20251;-71
2021/06/02 02:20:00;;;;;;;2.70;2.50;;;8.00;99.90;;;;;;7635506;23;20188;-71
2021/06/02 02:23:28;;;;;;;4.60;2.80;;;8.00;99.90;;;;;;7678208;23;20275;-71
2021/06/02 02:26:52;;;;;;;2.30;2.10;;;8.00;99.90;;;;;;7652353;23;20169;-71
2021/06/02 02:29:58;;;;;;;3.50;2.10;;;8.00;99.90;;;;;;7678172;23;20599;-71
2021/06/02 02:33:16;;;;;;;3.23;2.50;;;8.00;99.90;;;;;;7678135;23;20196;-71
2021/06/02 02:36:30;;;;;;;2.13;1.93;;;7.90;99.90;;;;;;7651211;23;20204;-71
2021/06/02 02:39:58;;;;;;;2.30;1.90;;;7.90;99.90;;;;;;7651909;23;20173;-71
2021/06/02 02:43:36;;;;;;;2.90;2.53;;;7.90;99.90;;;;;;7651474;23;20177;-71
2021/06/02 02:47:01;;;;;;;6.33;2.37;;;7.90;99.90;;;;;;7651524;23;20176;-71
2021/06/02 02:50:10;;;;;;;2.57;2.30;;;7.80;99.90;;;;;;7652094;23;20838;-71
2021/06/02 02:53:28;;;;;;;5.17;2.50;;;7.80;99.90;;;;;;7677305;23;20496;-71
2021/06/02 02:57:10;;;;;;;3.07;2.10;;;7.70;99.90;;;;;;7652042;23;20188;-71
2021/06/02 03:00:16;;;;;;;4.30;2.50;;;7.70;99.90;;;;;;7657790;23;20173;-71
2021/06/02 03:03:43;;;;;;;3.77;2.67;;;7.60;99.90;;;;;;7651733;23;20179;-71
2021/06/02 03:06:53;;;;;;;2.97;2.47;;;7.60;99.90;;;;;;7677302;23;20161;-71
2021/06/02 03:10:08;;;;;;;6.63;2.60;;;7.60;99.90;;;;;;7651748;23;20161;-71
2021/06/02 03:13:23;;;;;;;3.43;2.60;;;7.60;99.90;;;;;;7651043;23;20300;-71
2021/06/02 03:16:33;;;;;;;2.60;2.40;;;7.50;99.90;;;;;;7677517;23;20156;-71
2021/06/02 03:19:40;;;;;;;6.17;2.57;;;7.50;99.90;;;;;;7678317;23;20236;-71
2021/06/02 03:23:09;;;;;;;3.40;2.10;;;7.50;99.90;;;;;;7676596;23;20590;-71
2021/06/02 03:26:20;;;;;;;4.00;2.40;;;7.50;99.90;;;;;;7677626;23;20158;-71
2021/06/02 03:29:25;;;;;;;9.73;3.23;;;7.50;99.90;;;;;;7676819;23;20160;-71
2021/06/02 03:32:45;;;;;;;6.33;2.60;;;7.50;99.90;;;;;;7650699;23;20278;-71
2021/06/02 03:36:00;;;;;;;4.33;2.00;;;7.60;99.90;;;;;;7676941;23;20150;-71
2021/06/02 03:39:33;;;;;;;4.17;2.50;;;7.60;99.90;;;;;;7677879;23;20159;-71
2021/06/02 03:42:44;;;;;;;3.70;2.57;;;7.60;99.90;;;;;;7650493;23;20181;-71
2021/06/02 03:46:25;;;;;;;5.00;2.50;;;7.60;99.90;;;;;;7677438;23;20157;-71
2021/06/02 03:50:02;;;;;;;3.33;2.13;;;7.60;99.90;;;;;;7626596;23;20174;-71
2021/06/02 03:53:29;;;;;;;2.97;2.37;;;7.60;99.90;;;;;;7617464;23;20211;-71
2021/06/02 03:57:01;;;;;;;2.57;2.07;;;7.60;99.90;;;;;;7650553;23;20196;-71
2021/06/02 04:00:10;;;;;;;4.13;2.70;;;7.60;99.90;;;;;;7650601;23;20272;-71
2021/06/02 04:03:24;;;;;;;3.33;2.57;;;7.70;99.90;;;;;;7650852;23;20205;-71
2021/06/02 04:06:41;;;;;;;2.80;2.37;;;7.60;99.90;;;;;;7677013;23;20161;-71
2021/06/02 04:09:49;;;;;;;2.53;2.33;;;7.60;99.90;;;;;;7677075;23;20157;-71
2021/06/02 04:13:03;;;;;;;4.73;2.73;;;7.60;99.90;;;;;;7676578;23;20172;-71
2021/06/02 04:16:40;;;;;;;2.50;2.30;;;7.70;99.90;;;;;;7650716;23;20173;-71
2021/06/02 04:19:44;;;;;;;2.87;2.30;;;7.70;99.90;;;;;;7645367;23;20181;-71
2021/06/02 04:22:48;;;;;;;2.50;2.30;;;7.70;99.90;;;;;;7650974;23;20168;-71
2021/06/02 04:25:51;;;;;;;4.43;2.53;;;7.70;99.90;;;;;;7650543;23;20177;-71
2021/06/02 04:28:55;;;;;;;3.67;2.57;;;7.80;99.90;;;;;;7676147;23;20183;-71
2021/06/02 04:32:03;;;;;;;4.17;2.87;;;7.80;99.90;;;;;;7651193;23;20625;-71
2021/06/02 04:35:10;;;;;;;3.00;2.27;;;7.90;99.90;;;;;;7678164;23;20159;-71
2021/06/02 04:38:16;;;;;;;2.50;2.30;;;7.90;99.90;;;;;;7652758;23;20518;-71
2021/06/02 04:41:22;;;;;;;4.57;3.00;;;7.90;99.90;;;;;;7653764;23;20656;-71
2021/06/02 04:44:26;;;;;;;3.13;2.60;;;8.00;99.90;;;;;;7653330;23;20284;-71
2021/06/02 04:47:32;;;;;;;2.50;2.30;;;8.00;99.90;;;;;;7678707;23;20662;-71
2021/06/02 04:50:47;;;;;;;3.20;2.60;;;8.00;99.90;;;;;;7652167;23;20175;-71
2021/06/02 04:53:56;;;;;;;2.50;2.30;;;8.10;99.90;;;;;;7628875;23;20616;-71
2021/06/02 04:57:30;;;;;;;6.60;2.60;;;8.10;99.90;;;;;;7678255;23;20190;-71
2021/06/02 05:00:42;;;;;;;3.07;2.87;;;8.20;99.90;;;;;;7679157;23;20172;-71
2021/06/02 05:04:03;;;;;;;4.20;2.70;;;8.30;99.90;;;;;;7651984;23;20180;-71
2021/06/02 05:07:45;;;;;;;2.70;2.50;;;8.40;99.90;;;;;;7679146;23;20465;-71
2021/06/02 05:11:37;;;;;;;2.70;2.40;;;8.50;99.90;;;;;;7678985;23;20227;-71
2021/06/02 05:15:02;;;;;;;2.60;2.23;;;8.60;99.90;;;;;;7652675;23;20176;-71
2021/06/02 05:18:34;;;;;;;3.67;2.83;;;8.60;99.90;;;;;;7678955;23;20633;-71
2021/06/02 05:24:57;;;;;;;3.10;2.40;;;8.80;99.90;;;;;;7679010;23;20670;-71
2021/06/02 05:28:41;;;;;;;3.27;2.70;;;8.90;99.90;;;;;;7651972;23;20168;-71
2021/06/02 05:32:21;;;;;;;2.83;2.63;;;9.00;99.90;;;;;;7611810;23;20189;-71
2021/06/02 05:35:32;;;;;;;2.90;2.53;;;9.10;99.90;;;;;;7651541;23;20504;-71
2021/06/02 05:39:12;;;;;;;3.50;2.60;;;9.10;99.90;;;;;;7652275;23;20186;-71
2021/06/02 05:42:14;;;;;;;3.20;2.80;;;9.20;99.90;;;;;;7678058;23;20181;-71
2021/06/02 05:45:17;;;;;;;4.57;2.77;;;9.30;99.90;;;;;;7677944;23;20194;-71
2021/06/02 05:48:40;;;;;;;2.90;2.70;;;9.40;99.90;;;;;;7677618;23;20177;-71
2021/06/02 05:52:03;;;;;;;5.43;2.60;;;9.40;99.90;;;;;;7651480;23;20180;-71
2021/06/02 05:55:24;;;;;;;3.93;2.70;;;9.60;99.90;;;;;;7651654;23;20176;-71
2021/06/02 05:58:56;;;;;;;3.03;2.70;;;9.70;99.90;;;;;;7677335;23;20153;-71
2021/06/02 06:02:01;;;;;;;4.97;3.17;;;9.80;99.90;;;;;;7677882;23;20588;-71
2021/06/02 06:05:09;;;;;;;3.60;2.60;;;9.90;99.90;;;;;;7677125;23;20171;-71
2021/06/02 06:08:36;;;;;;;3.00;2.70;;;10.00;99.90;;;;;;7651106;23;20249;-71
2021/06/02 06:12:07;;;;;;;2.60;2.40;;;10.20;99.90;;;;;;7677163;23;20160;-71
2021/06/02 06:15:31;;;;;;;2.40;1.90;;;10.30;99.90;;;;;;7651426;23;20160;-71
2021/06/02 06:18:57;;;;;;;3.63;2.80;;;10.50;99.90;;;;;;7676906;23;20612;-71
2021/06/02 06:22:20;;;;;;;2.43;2.23;;;10.70;99.90;;;;;;7651823;23;20156;-71
2021/06/02 06:25:29;;;;;;;3.43;2.23;;;10.90;99.90;;;;;;7677278;23;20160;-71
2021/06/02 06:28:43;;;;;;;2.60;2.07;;;11.20;99.90;;;;;;7677244;23;20152;-71
2021/06/02 06:31:50;;;;;;;3.70;2.60;;;11.40;99.90;;;;;;7651748;23;20157;-71
2021/06/02 06:34:53;;;;;;;5.13;2.37;;;11.70;99.90;;;;;;7676794;23;20149;-71
2021/06/02 06:37:58;;;;;;;4.93;2.53;;;12.00;99.90;;;;;;7651126;23;20220;-71
2021/06/02 06:41:02;;;;;;;3.37;2.20;;;12.30;99.90;;;;;;7651083;23;20168;-71
2021/06/02 06:44:06;;;;;;;2.60;2.20;;;12.70;99.90;;;;;;7651204;23;20176;-71
2021/06/02 06:47:12;;;;;;;3.60;2.17;;;13.10;99.90;;;;;;7651176;23;20180;-71
2021/06/02 06:50:16;;;;;;;2.57;2.30;;;13.40;99.90;;;;;;7649943;23;20184;-71
2021/06/02 06:53:21;;;;;;;4.07;2.17;;;13.70;99.90;;;;;;7676662;23;20184;-71
2021/06/02 06:56:26;;;;;;;2.23;2.03;;;14.00;99.90;;;;;;7675572;23;20197;-71
2021/06/02 06:59:29;;;;;;;1.80;1.70;;;14.40;99.90;;;;;;7676276;23;20576;-71
2021/06/02 07:02:32;;;;;;;4.10;2.17;;;14.70;99.90;;;;;;7649560;23;20198;-71
2021/06/02 07:05:35;;;;;;;3.00;1.73;;;15.00;99.90;;;;;;7676677;23;20178;-71
2021/06/02 07:08:42;;;;;;;5.07;2.33;;;15.40;99.90;;;;;;7676400;23;20177;-71
2021/06/02 07:11:45;;;;;;;2.97;2.10;;;15.60;99.90;;;;;;7676396;23;20160;-71
2021/06/02 07:14:52;;;;;;;3.67;1.93;;;15.80;99.90;;;;;;7676475;23;20161;-70
2021/06/02 07:17:56;;;;;;;3.10;1.93;;;16.00;99.90;;;;;;7650382;23;20196;-71
2021/06/02 07:21:03;;;;;;;2.60;1.87;;;16.40;99.90;;;;;;7650561;23;20541;-71
2021/06/02 07:24:07;;;;;;;3.63;1.90;;;16.70;99.90;;;;;;7676558;23;20225;-70
2021/06/02 07:27:10;;;;;;;2.63;2.10;;;17.00;99.70;;;;;;7649739;23;20176;-71
2021/06/02 07:30:13;;;;;;;3.20;2.23;;;17.30;91.80;;;;;;7676280;23;20164;-70
2021/06/02 07:33:16;;;;;;;2.83;2.20;;;17.60;91.10;;;;;;7676294;23;20192;-70
2021/06/02 07:36:18;;;;;;;3.50;1.60;;;18.00;90.00;;;;;;7650138;23;20195;-70
2021/06/02 07:39:20;;;;;;;4.03;2.20;;;18.40;90.80;;;;;;7650347;23;20179;-69
2021/06/02 07:42:23;;;;;;;4.00;2.20;;;18.70;84.50;;;;;;7650355;23;20227;-69
2021/06/02 07:45:25;;;;;;;2.93;2.43;;;19.00;85.50;;;;;;7676735;23;20513;-69
2021/06/02 07:48:27;;;;;;;2.83;2.20;;;19.30;81.90;;;;;;7675649;23;20473;-69
2021/06/02 07:51:29;;;;;;;4.87;2.70;;;19.50;80.30;;;;;;7677029;23;20160;-69
2021/06/02 07:54:32;;;;;;;3.43;2.20;;;19.70;73.30;;;;;;7676616;23;20194;-70
2021/06/02 07:57:34;;;;;;;2.40;1.80;;;20.00;78.30;;;;;;7649750;23;20192;-70
2021/06/02 08:00:36;;;;;;;3.80;1.93;;;20.30;74.60;;;;;;7651195;23;20176;-70
2021/06/02 08:03:39;;;;;;;4.40;1.97;;;20.60;73.60;;;;;;7649205;23;20230;-69
2021/06/02 08:06:41;;;;;;;3.53;2.60;;;20.90;72.30;;;;;;7650543;23;20655;-69
2021/06/02 08:09:45;;;;;;;3.80;1.90;;;21.10;65.60;;;;;;7678482;23;20251;-69
2021/06/02 08:12:47;;;;;;;1.93;1.77;;;21.20;65.50;;;;;;7679626;23;20215;-69
2021/06/02 08:15:50;;;;;;;3.40;1.97;;;21.40;59.80;;;;;;7653293;23;20172;-69
2021/06/02 08:18:53;;;;;;;4.43;2.10;;;21.50;57.60;;;;;;7679470;23;20164;-69
2021/06/02 08:21:55;;;;;;;4.73;1.90;;;21.70;59.40;;;;;;7653142;23;20226;-69
2021/06/02 08:24:57;;;;;;;4.63;2.13;;;21.80;53.90;;;;;;7679439;23;20174;-69
2021/06/02 08:28:00;;;;;;;1.87;1.70;;;21.90;55.60;;;;;;7680367;23;20166;-69
2021/06/02 08:31:03;;;;;;;3.30;1.60;;;22.10;53.80;;;;;;7653831;23;20243;-69
2021/06/02 08:34:05;;;;;;;3.30;1.90;;;22.40;52.60;;;;;;7654058;23;20199;-69
2021/06/02 08:37:07;;;;;;;4.30;1.50;;;22.70;51.40;;;;;;7680930;23;20187;-69
2021/06/02 08:40:11;;;;;;;2.03;1.63;;;23.00;53.60;;;;;;7679967;23;20168;-69
2021/06/02 08:43:13;;;;;;;1.50;1.40;;;23.10;50.80;;;;;;7654355;23;20604;-69
2021/06/02 08:46:17;;;;;;;4.13;1.53;;;23.40;51.30;;;;;;7680769;23;20168;-69
2021/06/02 08:49:24;;;;;;;4.10;1.53;;;23.60;51.90;;;;;;7680414;23;20156;-69
2021/06/02 08:52:27;;;;;;;2.07;1.53;;;23.80;50.20;;;;;;7680173;23;20222;-69
2021/06/02 08:55:29;;;;;;;2.30;1.50;;;24.00;47.50;;;;;;7678874;23;20580;-69
2021/06/02 08:58:32;;;;;;;2.50;1.83;;;24.00;48.00;;;;;;7678390;23;20156;-69
2021/06/02 09:01:35;;;;;;;3.37;1.40;;;24.20;46.00;;;;;;7677994;23;20605;-69
2021/06/02 09:04:37;;;;;;;4.97;1.33;;;24.10;43.60;;;;;;7651926;23;20178;-69
2021/06/02 09:07:41;;;;;;;3.00;1.47;;;24.30;43.40;;;;;;7652164;23;20172;-69
2021/06/02 09:10:45;;;;;;;2.17;1.30;;;24.60;46.50;;;;;;7651535;23;20168;-69
2021/06/02 09:13:47;;;;;;;1.93;1.43;;;24.70;43.30;;;;;;7653329;23;20192;-69
2021/06/02 09:17:01;;;;;;;4.73;2.00;;;25.00;43.40;;;;;;7678915;23;20566;-69
2021/06/02 09:20:04;;;;;;;2.10;1.40;;;25.10;45.70;;;;;;7678343;23;20582;-69
2021/06/02 09:23:26;;;;;;;3.23;1.67;;;25.20;46.40;;;;;;7678304;23;20512;-69
2021/06/02 09:26:30;;;;;;;3.93;1.63;;;25.20;43.70;;;;;;7653512;23;20164;-69
2021/06/02 09:29:48;;;;;;;3.57;1.70;;;25.10;44.50;;;;;;7678650;23;20175;-69
2021/06/02 09:32:57;;;;;;;2.70;1.97;;;24.90;43.40;;;;;;7651318;23;20196;-69
2021/06/02 09:36:06;;;;;;;2.90;2.23;;;24.50;44.00;;;;;;7678365;23;20542;-69
2021/06/02 09:39:26;;;;;;;3.47;1.70;;;24.60;43.60;;;;;;7676697;23;20160;-66
2021/06/02 09:42:29;;;;;;;3.23;1.77;;;24.80;45.20;;;;;;7650981;23;20176;-66
2021/06/02 09:45:35;;;;;;;2.43;1.77;;;25.10;44.60;;;;;;7676899;23;20228;-66
2021/06/02 09:48:39;;;;;;;3.63;2.03;;;25.10;44.40;;;;;;7650888;23;20179;-66
2021/06/02 09:51:43;;;;;;;3.55;1.83;;;25.00;43.60;;;;;;7677668;23;20495;-66
2021/06/02 09:54:47;;;;;;;2.67;1.80;;;25.20;45.00;;;;;;7650755;23;20511;-66
2021/06/02 09:57:55;;;;;;;2.53;1.70;;;25.20;43.10;;;;;;7650874;23;20200;-66
2021/06/02 10:01:14;;;;;;;4.40;1.93;;;25.00;44.20;;;;;;7676662;23;20149;-66
2021/06/02 10:04:17;;;;;;;1.50;1.40;;;25.50;46.10;;;;;;7677298;23;20168;-66
2021/06/02 10:07:21;;;;;;;2.80;1.50;;;26.00;44.70;;;;;;7650152;23;20218;-66
2021/06/02 10:10:25;;;;;;;4.90;1.77;;;26.50;46.10;;;;;;7676888;23;20168;-66
2021/06/02 10:13:29;;;;;;;3.45;1.75;;;27.00;42.90;;;;;;7676998;23;20192;-66
2021/06/02 10:16:45;;;;;;;2.92;1.67;;;26.50;42.50;;;;;;7676582;23;20240;-66
2021/06/02 10:19:47;;;;;;;2.25;1.70;;;26.20;41.60;;;;;;7650623;23;20161;-66
2021/06/02 10:22:55;;;;;;;3.83;1.80;;;26.20;44.00;;;;;;7676247;23;20803;-66
2021/06/02 10:25:58;;;;;;;3.10;1.70;;;26.60;43.30;;;;;;7650606;23;20533;-66
2021/06/02 10:29:00;;;;;;;3.25;1.70;;;26.60;40.90;;;;;;7676724;23;20168;-66
2021/06/02 10:32:05;;;;;;;3.13;2.15;;;25.90;41.50;;;;;;7676305;23;20168;-66
2021/06/02 10:35:07;;;;;;;1.63;1.52;;;26.00;41.90;;;;;;7650520;23;20549;-66
2021/06/02 10:38:12;;;;;;;1.65;1.55;;;26.10;40.90;;;;;;7676152;23;20180;-66
2021/06/02 10:41:33;;;;;;;3.63;1.67;;;26.20;41.90;;;;;;7677277;23;20553;-66
2021/06/02 10:44:39;;;;;;;1.85;1.67;;;26.40;40.90;;;;;;7676302;23;20161;-66
2021/06/02 10:47:41;;;;;;;1.63;1.52;;;26.70;40.10;;;;;;7676660;23;20175;-66
2021/06/02 10:50:45;;;;;;;1.50;1.40;;;26.70;39.40;;;;;;7676437;23;20175;-66
2021/06/02 10:54:01;;;;;;;2.13;1.38;;;26.90;39.20;;;;;;7650272;23;20184;-66
2021/06/02 10:57:13;;;;;;;3.42;1.45;;;26.90;37.30;;;;;;7676407;23;20196;-66
2021/06/02 11:00:16;;;;;;;3.03;1.60;;;27.20;38.90;;;;;;7675815;23;20172;-66
2021/06/02 11:03:28;;;;;;;2.33;1.40;;;27.30;37.20;;;;;;7676390;23;20164;-66
2021/06/02 11:06:33;;;;;;;2.72;1.70;;;27.40;37.80;;;;;;7675720;23;20164;-66
2021/06/02 11:09:53;;;;;;;1.63;1.40;;;27.80;38.60;;;;;;7676298;23;20169;-66
2021/06/02 11:13:02;;;;;;;3.30;1.63;;;27.80;37.30;;;;;;7650380;23;20251;-66
2021/06/02 11:16:04;;;;;;;2.58;1.63;;;27.90;38.10;;;;;;7675897;23;20145;-66
2021/06/02 11:19:16;;;;;;;1.63;1.50;;;27.80;37.10;;;;;;7649561;23;20383;-66
2021/06/02 11:22:26;;;;;;;3.13;1.60;;;28.10;38.00;;;;;;7649880;23;20449;-66
2021/06/02 11:25:28;;;;;;;4.65;1.95;;;27.80;35.80;;;;;;7676708;23;20168;-66
2021/06/02 11:28:40;;;;;;;2.20;2.00;;;26.70;36.30;;;;;;7649631;23;20593;-66
2021/06/02 11:31:42;;;;;;;2.72;1.60;;;26.50;37.50;;;;;;7650554;23;20173;-66
2021/06/02 11:34:52;;;;;;;3.30;1.50;;;27.00;38.10;;;;;;7649381;23;20345;-66
2021/06/02 11:37:54;;;;;;;4.25;1.80;;;27.60;36.20;;;;;;7675546;23;20200;-66
2021/06/02 11:40:57;;;;;;;2.70;1.42;;;27.80;36.60;;;;;;7676010;23;20175;-66
2021/06/02 11:43:59;;;;;;;1.55;1.38;;;27.80;36.10;;;;;;7675325;23;20219;-66
2021/06/02 11:47:12;;;;;;;2.85;1.55;;;28.10;37.20;;;;;;7676044;23;20152;-66
2021/06/02 11:50:17;;;;;;;2.83;1.50;;;28.10;36.60;;;;;;7649102;23;20180;-66
2021/06/02 11:53:19;;;;;;;1.65;1.45;;;28.10;37.20;;;;;;7648898;23;20188;-66
2021/06/02 11:56:22;;;;;;;1.83;1.73;;;28.50;36.70;;;;;;7676161;23;20238;-66
2021/06/02 11:59:24;;;;;;;2.00;1.50;;;28.90;36.50;;;;;;7649142;23;20168;-66
2021/06/02 12:02:26;;;;;;;3.33;1.60;;;28.90;36.10;;;;;;7675760;23;20171;-66
2021/06/02 12:05:38;;;;;;;4.18;1.65;;;28.70;35.80;;;;;;7675859;23;20164;-66
2021/06/02 12:08:42;;;;;;;2.70;1.65;;;28.50;35.50;;;;;;7649781;23;20153;-66
2021/06/02 12:11:50;;;;;;;3.53;1.60;;;28.30;35.50;;;;;;7676067;23;20157;-66
2021/06/02 12:14:53;;;;;;;2.22;1.50;;;28.60;36.00;;;;;;7675153;23;20235;-66
2021/06/02 12:17:56;;;;;;;2.22;1.40;;;28.80;35.20;;;;;;7675950;23;20566;-66
2021/06/02 12:21:18;;;;;;;3.75;1.45;;;29.10;36.10;;;;;;7649228;23;20502;-66
2021/06/02 12:24:25;;;;;;;4.70;2.03;;;29.40;35.20;;;;;;7648196;23;20183;-66
2021/06/02 12:27:27;;;;;;;4.20;1.55;;;29.20;33.30;;;;;;7676102;23;20161;-66
2021/06/02 12:30:35;;;;;;;3.20;1.75;;;29.00;34.10;;;;;;7675057;23;20168;-66
2021/06/02 12:33:40;;;;;;;3.35;1.45;;;28.70;34.20;;;;;;7675679;23;20655;-67
2021/06/02 12:36:52;;;;;;;3.22;1.50;;;28.90;34.20;;;;;;7624467;23;20196;-66
2021/06/02 12:40:03;;;;;;;1.90;1.33;;;29.10;33.70;;;;;;7649159;23;20653;-65
2021/06/02 12:43:14;;;;;;;2.15;1.70;;;29.00;33.70;;;;;;7649373;23;20471;-65
2021/06/02 12:46:18;;;;;;;2.47;1.50;;;28.70;34.40;;;;;;7675739;23;20551;-65
2021/06/02 12:49:21;;;;;;;3.65;1.80;;;28.70;34.60;;;;;;7649020;23;20303;-67
2021/06/02 12:52:24;;;;;;;3.83;1.52;;;29.00;34.80;;;;;;7675272;23;20172;-66
2021/06/02 12:55:26;;;;;;;1.65;1.17;;;29.40;34.70;;;;;;7676422;23;20184;-66
2021/06/02 12:58:31;;;;;;;2.20;1.58;;;29.70;33.80;;;;;;7626461;23;20604;-66
2021/06/02 13:01:34;;;;;;;2.58;1.55;;;29.80;35.40;;;;;;7678327;23;20176;-66
2021/06/02 13:04:36;;;;;;;2.90;1.60;;;29.90;34.50;;;;;;7682700;23;20172;-66
2021/06/02 13:07:39;;;;;;;1.70;1.30;;;30.00;33.90;;;;;;7681013;23;20187;-66
2021/06/02 13:11:06;;;;;;;2.45;1.17;;;30.10;33.30;;;;;;7679371;23;20309;-66
2021/06/02 13:14:08;;;;;;;2.88;1.58;;;30.10;34.40;;;;;;7653120;23;20516;-66
2021/06/02 13:17:10;;;;;;;4.20;1.58;;;30.40;32.70;;;;;;7653114;23;20195;-66
2021/06/02 13:20:12;;;;;;;3.53;1.50;;;30.70;32.90;;;;;;7652147;23;20251;-66
2021/06/02 13:23:31;;;;;;;2.58;1.50;;;31.10;32.30;;;;;;7653555;23;20172;-66
2021/06/02 13:26:33;;;;;;;2.53;1.63;;;31.40;32.90;;;;;;7678714;23;20157;-66
2021/06/02 13:29:36;;;;;;;2.05;1.60;;;31.10;32.50;;;;;;7676867;23;20171;-66
2021/06/02 13:32:38;;;;;;;2.15;1.42;;;31.20;32.50;;;;;;7677692;23;20168;-66
2021/06/02 13:35:44;;;;;;;2.40;1.25;;;31.20;32.70;;;;;;7650749;23;20192;-66
2021/06/02 13:38:46;;;;;;;3.63;1.50;;;30.90;32.10;;;;;;7651407;23;20156;-66
2021/06/02 13:41:59;;;;;;;2.80;1.27;;;30.00;32.00;;;;;;7677131;23;20262;-66
2021/06/02 13:45:04;;;;;;;1.67;1.30;;;29.60;33.90;;;;;;7677516;23;20148;-66
2021/06/02 13:48:31;;;;;;;1.95;1.45;;;29.20;32.70;;;;;;7677577;23;20168;-66
2021/06/02 13:51:42;;;;;;;3.88;1.40;;;28.90;32.50;;;;;;7677099;23;20153;-66
2021/06/02 13:54:56;;;;;;;1.42;1.33;;;29.00;33.40;;;;;;7677542;23;20180;-66
2021/06/02 13:57:58;;;;;;;2.25;1.50;;;29.30;33.30;;;;;;7676430;23;20192;-66
2021/06/02 14:01:00;;;;;;;4.75;1.55;;;29.60;34.80;;;;;;7676980;23;20539;-66
2021/06/02 14:04:04;;;;;;;2.00;1.27;;;29.90;34.90;;;;;;7676875;23;20164;-66
2021/06/02 14:07:09;;;;;;;2.60;1.52;;;30.30;33.90;;;;;;7626260;23;20639;-66
2021/06/02 14:10:12;;;;;;;2.67;1.42;;;30.60;33.60;;;;;;7650833;23;20168;-66
2021/06/02 14:13:14;;;;;;;1.63;1.23;;;30.70;32.60;;;;;;7676392;23;20169;-66
2021/06/02 14:16:20;;;;;;;1.77;1.40;;;30.40;32.00;;;;;;7677354;23;20168;-66
2021/06/02 14:19:22;;;;;;;1.60;1.33;;;30.20;33.00;;;;;;7625948;23;20175;-66
2021/06/02 14:22:25;;;;;;;1.70;1.50;;;29.90;34.10;;;;;;7676927;23;20164;-66
2021/06/02 14:25:27;;;;;;;1.67;1.45;;;29.60;34.20;;;;;;7677212;23;20175;-66
2021/06/02 14:28:30;;;;;;;1.65;1.40;;;29.20;35.10;;;;;;7676698;23;20245;-66
2021/06/02 14:31:39;;;;;;;2.17;1.20;;;29.20;36.40;;;;;;7677275;23;20623;-66
2021/06/02 14:34:42;;;;;;;1.58;1.35;;;29.60;37.30;;;;;;7650304;23;20202;-66
2021/06/02 14:37:44;;;;;;;1.77;1.35;;;29.90;37.20;;;;;;7650462;23;20200;-66
2021/06/02 14:40:46;;;;;;;1.73;1.42;;;30.00;35.40;;;;;;7676856;23;20226;-66
2021/06/02 14:43:50;;;;;;;1.70;1.60;;;29.80;34.80;;;;;;7676984;23;20213;-66
2021/06/02 14:46:53;;;;;;;2.35;1.80;;;29.40;36.30;;;;;;7651255;23;20530;-66
2021/06/02 14:49:56;;;;;;;2.58;1.40;;;29.30;35.40;;;;;;7650155;23;20235;-66
2021/06/02 14:52:59;;;;;;;1.65;1.30;;;29.30;38.00;;;;;;7677006;23;20183;-66
2021/06/02 14:56:02;;;;;;;1.70;1.60;;;29.30;37.10;;;;;;7649483;23;20511;-66
2021/06/02 14:59:05;;;;;;;4.25;1.50;;;29.10;36.90;;;;;;7676544;23;20171;-67
2021/06/02 15:02:07;;;;;;;2.00;1.50;;;29.00;37.40;;;;;;7677195;23;20243;-69
2021/06/02 15:05:10;;;;;;;2.33;1.60;;;28.90;40.00;;;;;;7676422;23;20625;-69
2021/06/02 15:08:12;;;;;;;4.40;1.75;;;29.00;40.50;;;;;;7650521;23;20499;-69
2021/06/02 15:11:14;;;;;;;1.88;1.60;;;29.00;36.90;;;;;;7675929;23;20222;-69
2021/06/02 15:14:18;;;;;;;1.90;1.10;;;28.90;36.10;;;;;;7625572;23;20192;-69
2021/06/02 15:17:21;;;;;;;2.40;1.60;;;29.00;38.10;;;;;;7676155;23;20242;-69
2021/06/02 15:20:25;;;;;;;1.63;1.38;;;29.20;37.10;;;;;;7675684;23;20171;-69
2021/06/02 15:23:29;;;;;;;2.75;1.60;;;29.40;39.30;;;;;;7676534;23;20600;-69
2021/06/02 15:26:31;;;;;;;4.43;1.60;;;29.60;37.70;;;;;;7649640;23;20218;-69
2021/06/02 15:29:47;;;;;;;2.25;1.30;;;29.30;35.90;;;;;;7649983;23;20223;-69
2021/06/02 15:32:50;;;;;;;2.42;1.60;;;28.70;39.30;;;;;;7675691;23;20236;-69
2021/06/02 15:35:58;;;;;;;2.55;1.35;;;28.40;40.90;;;;;;7676193;23;20196;-69
2021/06/02 15:39:00;;;;;;;2.03;1.35;;;29.00;39.40;;;;;;7675997;23;20168;-69
2021/06/02 15:42:04;;;;;;;4.05;1.33;;;29.80;36.00;;;;;;7649137;23;20250;-69
2021/06/02 15:45:18;;;;;;;1.60;1.33;;;30.40;37.60;;;;;;7651942;23;20203;-69
2021/06/02 15:48:22;;;;;;;3.55;1.40;;;30.70;38.20;;;;;;7675563;23;20500;-69
2021/06/02 15:51:25;;;;;;;2.17;1.38;;;30.70;34.80;;;;;;7676073;23;20243;-69
2021/06/02 15:54:30;;;;;;;3.33;1.65;;;30.60;34.00;;;;;;7648896;23;20195;-69
2021/06/02 15:57:34;;;;;;;1.77;1.40;;;30.70;34.50;;;;;;7675107;23;20222;-69
2021/06/02 16:00:41;;;;;;;1.60;1.50;;;30.90;34.00;;;;;;7675805;23;20628;-69
2021/06/02 16:03:43;;;;;;;1.70;1.50;;;31.10;34.10;;;;;;7649496;23;20164;-69
2021/06/02 16:06:46;;;;;;;2.50;1.58;;;31.20;33.40;;;;;;7676149;23;20176;-69
2021/06/02 16:09:48;;;;;;;2.67;1.40;;;30.80;33.20;;;;;;7649456;23;20164;-70
2021/06/02 16:12:57;;;;;;;2.25;1.80;;;29.90;34.00;;;;;;7675935;23;20531;-70
2021/06/02 16:15:59;;;;;;;2.40;1.75;;;28.40;35.40;;;;;;7675914;23;20181;-70
2021/06/02 16:19:02;;;;;;;2.58;1.30;;;27.00;37.10;;;;;;7677105;23;20526;-69
2021/06/02 16:22:04;;;;;;;2.25;1.40;;;25.90;38.30;;;;;;7654494;23;20172;-69
2021/06/02 16:25:07;;;;;;;1.67;1.55;;;25.20;39.60;;;;;;7652307;23;20215;-69
2021/06/02 16:28:10;;;;;;;2.73;1.50;;;24.50;39.90;;;;;;7676852;23;20497;-69
2021/06/02 16:31:12;;;;;;;2.70;1.33;;;24.20;42.40;;;;;;7652242;23;20198;-69
2021/06/02 16:34:15;;;;;;;1.40;1.30;;;24.80;44.30;;;;;;7679369;23;20191;-69